Rutland - Southern Vermont Regional Airport Rutland US
ICAO: KRUT
IATA: RUT
Category: Medium
Scheduled Services: Yes

Elevation: 787 ft
TransAlt. 18000 ft.

Airport Communications:
AWOS 3:118.375
BOSTON CNTR:135.7
BURLINGTON RDO:122.3
CTAF/UNICOM:122.8

KRUT Zoom In..

If you have problems with the map follow the link
https://www.worldairports.se/pages/airport.php?
ICAO=KRUT

Runways:

(A) RW 01 length 5003 ft width 100 ft
---- / hdg 14

(B) RW 13 length 3170 ft width 75 ft
---- / hdg 134

(C) RW 19 length 5003 ft width 100 ft
ILS 111.70 / hdg 194

(D) RW 31 length 3170 ft width 75 ft
---- / hdg 314

Location; KRUT
Day. 11 / Time. 14.56 Zulu
* Altimeter: 30.24
* Temperature: -05° c. -23°f.
* Wind from: 360° Speed 04 kn.
Dewpoint: -09° c.
Visibility: 10 Statute Miles.
Clouds: Clear (automated report).

KRUT 111456Z AUTO 36004KT 10SM CLR M05/M09 A3024 RMK AO2 SLP242 T10501094 51022 FZRANO $


Wind From 360°
Speed 04 kn.

 
 
jpsmedia worldairports.se 2019   terms of use